createdAt,value
2018-01-13T00:00:50.100Z,1027.24
2018-01-13T00:01:50.091Z,1027.33
2018-01-13T00:02:50.083Z,1027.37
2018-01-13T00:03:50.074Z,1027.36
2018-01-13T00:04:50.062Z,1027.36
2018-01-13T00:05:50.054Z,1027.36
2018-01-13T00:06:50.047Z,1027.34
2018-01-13T00:07:50.034Z,1027.35
2018-01-13T00:08:50.028Z,1027.35
2018-01-13T00:09:50.015Z,1027.35
2018-01-13T00:10:50.009Z,1027.35
2018-01-13T00:11:49.992Z,1027.34
2018-01-13T00:12:49.988Z,1027.34
2018-01-13T00:13:49.976Z,1027.35
2018-01-13T00:14:49.967Z,1027.33
2018-01-13T00:15:49.957Z,1027.36
2018-01-13T00:16:49.947Z,1027.34
2018-01-13T00:17:49.933Z,1027.31
2018-01-13T00:18:49.933Z,1027.31
2018-01-13T00:19:49.918Z,1027.36
2018-01-13T00:20:49.909Z,1027.36
2018-01-13T00:21:49.903Z,1027.33
2018-01-13T00:22:49.890Z,1027.33
2018-01-13T00:23:49.878Z,1027.30
2018-01-13T00:24:49.867Z,1027.33
2018-01-13T00:25:49.861Z,1027.34
2018-01-13T00:26:49.853Z,1027.30
2018-01-13T00:27:49.841Z,1027.33
2018-01-13T00:28:49.849Z,1027.35
2018-01-13T00:29:49.821Z,1027.36
2018-01-13T00:30:49.811Z,1027.27
2018-01-13T00:31:49.803Z,1027.30
2018-01-13T00:32:49.793Z,1027.35
2018-01-13T00:33:49.785Z,1027.41
2018-01-13T00:34:49.775Z,1027.38
2018-01-13T00:35:49.763Z,1027.37
2018-01-13T00:36:49.755Z,1027.36
2018-01-13T00:37:49.743Z,1027.40
2018-01-13T00:38:49.735Z,1027.41
2018-01-13T00:39:49.781Z,1027.43
2018-01-13T00:40:49.715Z,1027.43
2018-01-13T00:41:49.706Z,1027.42
2018-01-13T00:42:49.695Z,1027.46
2018-01-13T00:43:49.681Z,1027.44
2018-01-13T00:44:49.678Z,1027.43
2018-01-13T00:45:49.666Z,1027.47
2018-01-13T00:46:49.663Z,1027.48
2018-01-13T00:47:49.650Z,1027.51
2018-01-13T00:48:49.636Z,1027.52
2018-01-13T00:49:49.628Z,1027.54
2018-01-13T00:50:49.619Z,1027.52
2018-01-13T00:51:49.608Z,1027.54
2018-01-13T00:52:49.599Z,1027.55
2018-01-13T00:53:49.590Z,1027.55
2018-01-13T00:54:49.581Z,1027.58
2018-01-13T00:55:49.575Z,1027.56
2018-01-13T00:56:49.557Z,1027.62
2018-01-13T00:57:49.551Z,1027.58
2018-01-13T00:58:49.540Z,1027.54
2018-01-13T00:59:49.530Z,1027.62
2018-01-13T01:00:49.522Z,1027.59
2018-01-13T01:01:49.510Z,1027.61
2018-01-13T01:02:49.502Z,1027.58
2018-01-13T01:03:49.539Z,1027.59
2018-01-13T01:04:49.488Z,1027.58
2018-01-13T01:05:49.473Z,1027.55
2018-01-13T01:06:49.462Z,1027.59
2018-01-13T01:07:49.451Z,1027.61
2018-01-13T01:08:49.442Z,1027.56
2018-01-13T01:09:49.435Z,1027.66
2018-01-13T01:10:49.425Z,1027.63
2018-01-13T01:11:49.438Z,1027.62
2018-01-13T01:12:49.404Z,1027.60
2018-01-13T01:13:49.395Z,1027.69
2018-01-13T01:14:49.386Z,1027.66
2018-01-13T01:15:49.374Z,1027.72
2018-01-13T01:16:49.368Z,1027.70
2018-01-13T01:17:49.356Z,1027.67
2018-01-13T01:18:49.347Z,1027.68
2018-01-13T01:19:49.337Z,1027.70
2018-01-13T01:20:49.325Z,1027.72
2018-01-13T01:21:49.316Z,1027.70
2018-01-13T01:22:49.307Z,1027.65
2018-01-13T01:23:49.297Z,1027.67
2018-01-13T01:24:49.295Z,1027.62
2018-01-13T01:25:49.279Z,1027.67
2018-01-13T01:26:49.266Z,1027.69
2018-01-13T01:27:49.260Z,1027.69
2018-01-13T01:28:49.254Z,1027.71
2018-01-13T01:29:49.241Z,1027.70
2018-01-13T01:30:49.230Z,1027.66
2018-01-13T01:31:49.221Z,1027.73
2018-01-13T01:32:49.210Z,1027.67
2018-01-13T01:33:49.200Z,1027.70
2018-01-13T01:34:49.190Z,1027.66
2018-01-13T01:35:49.179Z,1027.63
2018-01-13T01:36:49.177Z,1027.65
2018-01-13T01:37:49.161Z,1027.64
2018-01-13T01:38:49.152Z,1027.63
2018-01-13T01:39:49.142Z,1027.62
2018-01-13T01:40:49.133Z,1027.61
2018-01-13T01:41:49.121Z,1027.61
2018-01-13T01:42:49.117Z,1027.65
2018-01-13T01:43:49.105Z,1027.61
2018-01-13T01:44:49.093Z,1027.63
2018-01-13T01:45:49.082Z,1027.64
2018-01-13T01:46:49.073Z,1027.63
2018-01-13T01:47:49.059Z,1027.66
2018-01-13T01:48:49.056Z,1027.64
2018-01-13T01:49:49.043Z,1027.64
2018-01-13T01:50:49.036Z,1027.64
2018-01-13T01:51:49.023Z,1027.66
2018-01-13T01:52:49.014Z,1027.62
2018-01-13T01:53:49.012Z,1027.61
2018-01-13T01:54:48.996Z,1027.65
2018-01-13T01:55:48.986Z,1027.56
2018-01-13T01:56:48.977Z,1027.64
2018-01-13T01:57:48.963Z,1027.66
2018-01-13T01:58:48.954Z,1027.69
2018-01-13T01:59:48.946Z,1027.71
2018-01-13T02:00:48.936Z,1027.71
2018-01-13T02:01:48.928Z,1027.67
2018-01-13T02:02:48.918Z,1027.70
2018-01-13T02:03:48.908Z,1027.74
2018-01-13T02:04:48.898Z,1027.71
2018-01-13T02:05:48.887Z,1027.71
2018-01-13T02:06:48.878Z,1027.72
2018-01-13T02:07:48.872Z,1027.67
2018-01-13T02:08:48.879Z,1027.69
2018-01-13T02:09:48.854Z,1027.66
2018-01-13T02:10:48.840Z,1027.65
2018-01-13T02:11:48.829Z,1027.64
2018-01-13T02:12:48.820Z,1027.66
2018-01-13T02:13:48.811Z,1027.70
2018-01-13T02:14:48.803Z,1027.64
2018-01-13T02:15:48.789Z,1027.65
2018-01-13T02:16:48.779Z,1027.58
2018-01-13T02:17:48.769Z,1027.58
2018-01-13T02:18:48.761Z,1027.58
2018-01-13T02:19:48.750Z,1027.61
2018-01-13T02:20:48.744Z,1027.60
2018-01-13T02:21:48.731Z,1027.55
2018-01-13T02:22:48.720Z,1027.52
2018-01-13T02:23:48.726Z,1027.58
2018-01-13T02:24:48.702Z,1027.58
2018-01-13T02:25:48.701Z,1027.59
2018-01-13T02:26:48.684Z,1027.62
2018-01-13T02:27:48.672Z,1027.50
2018-01-13T02:28:48.659Z,1027.57
2018-01-13T02:29:48.648Z,1027.56
2018-01-13T02:30:48.642Z,1027.64
2018-01-13T02:31:48.632Z,1027.57
2018-01-13T02:32:48.622Z,1027.62
2018-01-13T02:33:48.612Z,1027.60
2018-01-13T02:34:48.601Z,1027.62
2018-01-13T02:35:48.593Z,1027.68
2018-01-13T02:36:48.582Z,1027.60
2018-01-13T02:37:48.570Z,1027.55
2018-01-13T02:38:48.569Z,1027.57
2018-01-13T02:39:48.556Z,1027.62
2018-01-13T02:40:48.537Z,1027.65
2018-01-13T02:41:48.533Z,1027.62
2018-01-13T02:42:48.523Z,1027.62
2018-01-13T02:43:48.517Z,1027.65
2018-01-13T02:44:48.510Z,1027.64
2018-01-13T02:45:48.491Z,1027.60
2018-01-13T02:46:48.485Z,1027.59
2018-01-13T02:47:48.476Z,1027.62
2018-01-13T02:48:48.462Z,1027.62
2018-01-13T02:49:48.453Z,1027.65
2018-01-13T02:50:48.443Z,1027.61
2018-01-13T02:51:48.432Z,1027.66
2018-01-13T02:52:48.423Z,1027.67
2018-01-13T02:53:48.414Z,1027.63
2018-01-13T02:54:48.401Z,1027.64
2018-01-13T02:55:48.393Z,1027.66
2018-01-13T02:56:48.385Z,1027.70
2018-01-13T02:57:48.376Z,1027.68
2018-01-13T02:58:48.365Z,1027.65
2018-01-13T02:59:48.351Z,1027.68
2018-01-13T03:00:48.344Z,1027.63
2018-01-13T03:01:48.334Z,1027.69
2018-01-13T03:02:48.323Z,1027.67
2018-01-13T03:03:48.318Z,1027.64
2018-01-13T03:04:48.304Z,1027.63
2018-01-13T03:05:48.291Z,1027.63
2018-01-13T03:06:48.283Z,1027.63
2018-01-13T03:07:48.271Z,1027.64
2018-01-13T03:08:48.263Z,1027.62
2018-01-13T03:09:48.254Z,1027.59
2018-01-13T03:10:48.248Z,1027.59
2018-01-13T03:11:48.230Z,1027.56
2018-01-13T03:12:48.222Z,1027.53
2018-01-13T03:13:48.215Z,1027.53
2018-01-13T03:14:48.208Z,1027.57
2018-01-13T03:15:48.204Z,1027.60
2018-01-13T03:16:48.185Z,1027.54
2018-01-13T03:17:48.174Z,1027.53
2018-01-13T03:18:48.165Z,1027.53
2018-01-13T03:19:48.155Z,1027.57
2018-01-13T03:20:48.145Z,1027.54
2018-01-13T03:21:48.141Z,1027.58
2018-01-13T03:22:48.159Z,1027.61
2018-01-13T03:23:48.112Z,1027.60
2018-01-13T03:24:48.105Z,1027.61
2018-01-13T03:25:48.097Z,1027.59
2018-01-13T03:26:48.086Z,1027.59
2018-01-13T03:27:48.078Z,1027.56
2018-01-13T03:28:48.066Z,1027.59
2018-01-13T03:29:48.057Z,1027.62
2018-01-13T03:30:48.045Z,1027.56
2018-01-13T03:31:48.034Z,1027.60
2018-01-13T03:32:48.027Z,1027.57
2018-01-13T03:33:48.037Z,1027.56
2018-01-13T03:34:48.005Z,1027.62
2018-01-13T03:35:47.995Z,1027.57
2018-01-13T03:36:47.984Z,1027.56
2018-01-13T03:37:47.976Z,1027.57
2018-01-13T03:38:47.966Z,1027.56
2018-01-13T03:39:47.954Z,1027.59
2018-01-13T03:40:47.949Z,1027.55
2018-01-13T03:41:47.936Z,1027.52
2018-01-13T03:42:47.928Z,1027.57
2018-01-13T03:43:47.916Z,1027.55
2018-01-13T03:44:47.909Z,1027.57
2018-01-13T03:45:47.897Z,1027.58
2018-01-13T03:46:47.886Z,1027.55
2018-01-13T03:47:47.879Z,1027.56
2018-01-13T03:48:47.862Z,1027.52
2018-01-13T03:49:47.856Z,1027.58
2018-01-13T03:50:47.846Z,1027.58
2018-01-13T03:51:47.836Z,1027.61
2018-01-13T03:52:47.827Z,1027.55
2018-01-13T03:53:47.816Z,1027.56
2018-01-13T03:54:47.807Z,1027.55
2018-01-13T03:55:47.797Z,1027.58
2018-01-13T03:56:47.785Z,1027.56
2018-01-13T03:57:47.778Z,1027.58
2018-01-13T03:58:47.772Z,1027.56
2018-01-13T03:59:47.757Z,1027.54
2018-01-13T04:00:47.750Z,1027.58
2018-01-13T04:01:47.739Z,1027.54
2018-01-13T04:02:47.725Z,1027.58
2018-01-13T04:03:47.719Z,1027.58
2018-01-13T04:04:47.711Z,1027.58
2018-01-13T04:05:47.697Z,1027.57
2018-01-13T04:06:47.687Z,1027.59
2018-01-13T04:07:47.677Z,1027.60
2018-01-13T04:08:47.666Z,1027.59
2018-01-13T04:09:47.656Z,1027.57
2018-01-13T04:10:47.649Z,1027.55
2018-01-13T04:11:47.635Z,1027.52
2018-01-13T04:12:47.625Z,1027.52
2018-01-13T04:13:47.616Z,1027.48
2018-01-13T04:14:47.607Z,1027.51
2018-01-13T04:15:47.597Z,1027.50
2018-01-13T04:16:47.587Z,1027.56
2018-01-13T04:17:47.576Z,1027.49
2018-01-13T04:18:47.568Z,1027.48
2018-01-13T04:19:47.554Z,1027.46
2018-01-13T04:20:47.545Z,1027.50
2018-01-13T04:21:47.536Z,1027.43
2018-01-13T04:22:47.525Z,1027.42
2018-01-13T04:23:47.522Z,1027.41
2018-01-13T04:24:47.505Z,1027.45
2018-01-13T04:25:47.494Z,1027.45
2018-01-13T04:26:47.482Z,1027.45
2018-01-13T04:27:47.475Z,1027.45
2018-01-13T04:28:47.464Z,1027.44
2018-01-13T04:29:47.456Z,1027.43
2018-01-13T04:30:47.445Z,1027.44
2018-01-13T04:31:47.433Z,1027.45
2018-01-13T04:32:47.426Z,1027.45
2018-01-13T04:33:47.415Z,1027.44
2018-01-13T04:34:47.405Z,1027.43
2018-01-13T04:35:47.394Z,1027.43
2018-01-13T04:36:47.385Z,1027.46
2018-01-13T04:37:47.373Z,1027.45
2018-01-13T04:38:47.365Z,1027.43
2018-01-13T04:39:47.354Z,1027.43
2018-01-13T04:40:47.345Z,1027.41
2018-01-13T04:41:47.335Z,1027.46
2018-01-13T04:42:47.324Z,1027.50
2018-01-13T04:43:47.311Z,1027.42
2018-01-13T04:44:47.308Z,1027.49
2018-01-13T04:45:47.292Z,1027.52
2018-01-13T04:46:47.285Z,1027.46
2018-01-13T04:47:47.275Z,1027.48
2018-01-13T04:48:47.265Z,1027.46
2018-01-13T04:49:47.254Z,1027.48
2018-01-13T04:50:47.245Z,1027.45
2018-01-13T04:51:47.232Z,1027.45
2018-01-13T04:52:47.227Z,1027.46
2018-01-13T04:53:47.217Z,1027.44
2018-01-13T04:54:47.207Z,1027.48
2018-01-13T04:55:47.207Z,1027.45
2018-01-13T04:56:47.186Z,1027.50
2018-01-13T04:57:47.176Z,1027.47
2018-01-13T04:58:47.166Z,1027.50
2018-01-13T04:59:47.156Z,1027.47
2018-01-13T05:00:47.145Z,1027.51
2018-01-13T05:01:47.134Z,1027.54
2018-01-13T05:02:47.125Z,1027.55
2018-01-13T05:03:47.114Z,1027.54
2018-01-13T05:04:47.103Z,1027.56
2018-01-13T05:05:47.097Z,1027.58
2018-01-13T05:06:47.086Z,1027.58
2018-01-13T05:07:47.075Z,1027.56
2018-01-13T05:08:47.063Z,1027.57
2018-01-13T05:09:47.054Z,1027.57
2018-01-13T05:10:47.044Z,1027.55
2018-01-13T05:11:47.033Z,1027.54
2018-01-13T05:12:47.023Z,1027.61
2018-01-13T05:13:47.014Z,1027.57
2018-01-13T05:14:47.003Z,1027.59
2018-01-13T05:15:46.993Z,1027.58
2018-01-13T05:16:46.984Z,1027.57
2018-01-13T05:17:46.976Z,1027.56
2018-01-13T05:18:46.964Z,1027.56
2018-01-13T05:19:46.954Z,1027.58
2018-01-13T05:20:46.943Z,1027.59
2018-01-13T05:21:46.934Z,1027.55
2018-01-13T05:22:46.923Z,1027.56
2018-01-13T05:23:46.913Z,1027.59
2018-01-13T05:24:46.906Z,1027.51
2018-01-13T05:25:46.897Z,1027.56
2018-01-13T05:26:46.881Z,1027.60
2018-01-13T05:27:46.878Z,1027.58
2018-01-13T05:28:46.868Z,1027.58
2018-01-13T05:29:46.856Z,1027.59
2018-01-13T05:30:46.846Z,1027.57
2018-01-13T05:31:46.834Z,1027.54
2018-01-13T05:32:46.821Z,1027.55
2018-01-13T05:33:46.818Z,1027.55
2018-01-13T05:34:46.807Z,1027.49
2018-01-13T05:35:46.796Z,1027.52
2018-01-13T05:36:46.789Z,1027.55
2018-01-13T05:37:46.777Z,1027.56
2018-01-13T05:38:46.766Z,1027.57
2018-01-13T05:39:46.754Z,1027.55
2018-01-13T05:40:46.746Z,1027.57
2018-01-13T05:41:46.735Z,1027.62
2018-01-13T05:42:46.725Z,1027.60
2018-01-13T05:43:46.716Z,1027.66
2018-01-13T05:44:46.708Z,1027.64
2018-01-13T05:45:46.696Z,1027.65
2018-01-13T05:46:46.693Z,1027.71
2018-01-13T05:47:46.678Z,1027.67
2018-01-13T05:48:46.665Z,1027.69
2018-01-13T05:49:46.656Z,1027.64
2018-01-13T05:50:46.645Z,1027.68
2018-01-13T05:51:46.635Z,1027.69
2018-01-13T05:52:46.627Z,1027.67
2018-01-13T05:53:46.616Z,1027.67
2018-01-13T05:54:46.612Z,1027.66
2018-01-13T05:55:46.596Z,1027.60
2018-01-13T05:56:46.588Z,1027.65
2018-01-13T05:57:46.575Z,1027.68
2018-01-13T05:58:46.569Z,1027.63
2018-01-13T05:59:46.558Z,1027.66
2018-01-13T06:00:46.551Z,1027.59
2018-01-13T06:01:46.547Z,1027.62
2018-01-13T06:02:46.529Z,1027.64
2018-01-13T06:03:46.522Z,1027.61
2018-01-13T06:04:46.508Z,1027.62
2018-01-13T06:05:46.498Z,1027.66
2018-01-13T06:06:46.497Z,1027.62
2018-01-13T06:07:46.477Z,1027.66
2018-01-13T06:08:46.468Z,1027.58
2018-01-13T06:09:46.457Z,1027.60
2018-01-13T06:10:47.202Z,1027.61
2018-01-13T06:11:46.455Z,1027.63
2018-01-13T06:12:46.430Z,1027.60
2018-01-13T06:13:46.428Z,1027.60
2018-01-13T06:14:46.410Z,1027.60
2018-01-13T06:15:46.401Z,1027.63
2018-01-13T06:16:46.396Z,1027.66
2018-01-13T06:17:46.380Z,1027.60
2018-01-13T06:18:46.371Z,1027.62
2018-01-13T06:19:46.364Z,1027.63
2018-01-13T06:20:46.348Z,1027.57
2018-01-13T06:21:46.341Z,1027.62
2018-01-13T06:22:46.331Z,1027.67
2018-01-13T06:23:46.321Z,1027.64
2018-01-13T06:24:46.310Z,1027.64
2018-01-13T06:25:46.300Z,1027.65
2018-01-13T06:26:46.297Z,1027.60
2018-01-13T06:27:46.281Z,1027.65
2018-01-13T06:28:46.271Z,1027.67
2018-01-13T06:29:46.263Z,1027.63
2018-01-13T06:30:46.249Z,1027.62
2018-01-13T06:31:46.242Z,1027.61
2018-01-13T06:32:46.238Z,1027.67
2018-01-13T06:33:46.221Z,1027.63
2018-01-13T06:34:46.210Z,1027.62
2018-01-13T06:35:46.205Z,1027.64
2018-01-13T06:36:46.192Z,1027.58
2018-01-13T06:37:46.183Z,1027.67
2018-01-13T06:38:46.176Z,1027.62
2018-01-13T06:39:46.162Z,1027.65
2018-01-13T06:40:46.151Z,1027.61
2018-01-13T06:41:46.142Z,1027.63
2018-01-13T06:42:46.133Z,1027.66
2018-01-13T06:43:46.125Z,1027.68
2018-01-13T06:44:46.111Z,1027.69
2018-01-13T06:45:46.106Z,1027.68
2018-01-13T06:46:46.144Z,1027.71
2018-01-13T06:47:46.083Z,1027.72
2018-01-13T06:48:46.076Z,1027.73
2018-01-13T06:49:46.064Z,1027.65
2018-01-13T06:50:46.059Z,1027.64
2018-01-13T06:51:46.044Z,1027.71
2018-01-13T06:52:46.032Z,1027.73
2018-01-13T06:53:46.025Z,1027.72
2018-01-13T06:54:46.016Z,1027.74
2018-01-13T06:55:46.004Z,1027.80
2018-01-13T06:56:45.996Z,1027.73
2018-01-13T06:57:45.984Z,1027.78
2018-01-13T06:58:45.977Z,1027.79
2018-01-13T06:59:45.967Z,1027.81
2018-01-13T07:00:45.957Z,1027.79
2018-01-13T07:01:45.946Z,1027.84
2018-01-13T07:02:45.943Z,1027.89
2018-01-13T07:03:45.928Z,1027.86
2018-01-13T07:04:45.919Z,1027.89
2018-01-13T07:05:45.903Z,1027.83
2018-01-13T07:06:45.896Z,1027.83
2018-01-13T07:07:45.885Z,1027.87
2018-01-13T07:08:45.875Z,1027.81
2018-01-13T07:09:45.865Z,1027.86
2018-01-13T07:10:45.859Z,1027.92
2018-01-13T07:11:45.845Z,1027.90
2018-01-13T07:12:45.835Z,1027.89
2018-01-13T07:13:45.828Z,1027.93
2018-01-13T07:14:45.817Z,1027.93
2018-01-13T07:15:45.806Z,1027.91
2018-01-13T07:16:45.796Z,1027.82
2018-01-13T07:17:45.786Z,1027.86
2018-01-13T07:18:45.779Z,1027.93
2018-01-13T07:19:45.766Z,1027.80
2018-01-13T07:20:45.756Z,1027.84
2018-01-13T07:21:45.755Z,1027.85
2018-01-13T07:22:45.737Z,1027.84
2018-01-13T07:23:45.726Z,1027.83
2018-01-13T07:24:45.718Z,1027.80
2018-01-13T07:25:45.706Z,1027.81
2018-01-13T07:26:45.702Z,1027.85
2018-01-13T07:27:45.694Z,1027.83
2018-01-13T07:28:45.677Z,1027.83
2018-01-13T07:29:45.672Z,1027.84
2018-01-13T07:30:45.659Z,1027.84
2018-01-13T07:31:45.648Z,1027.86
2018-01-13T07:32:45.640Z,1027.88
2018-01-13T07:33:45.632Z,1027.86
2018-01-13T07:34:45.621Z,1027.89
2018-01-13T07:35:45.607Z,1027.88
2018-01-13T07:36:45.599Z,1027.89
2018-01-13T07:37:45.589Z,1027.89
2018-01-13T07:38:45.576Z,1027.92
2018-01-13T07:39:45.568Z,1027.88
2018-01-13T07:40:45.561Z,1027.85
2018-01-13T07:41:45.548Z,1027.82
2018-01-13T07:42:45.542Z,1027.80
2018-01-13T07:43:45.528Z,1027.80
2018-01-13T07:44:45.518Z,1027.82
2018-01-13T07:45:45.510Z,1027.82
2018-01-13T07:46:45.498Z,1027.82
2018-01-13T07:47:45.502Z,1027.76
2018-01-13T07:48:45.477Z,1027.79
2018-01-13T07:49:45.467Z,1027.68
2018-01-13T07:50:45.459Z,1027.79
2018-01-13T07:51:45.450Z,1027.84
2018-01-13T07:52:45.442Z,1027.79
2018-01-13T07:53:45.433Z,1027.75
2018-01-13T07:54:45.418Z,1027.74
2018-01-13T07:55:45.408Z,1027.79
2018-01-13T07:56:45.401Z,1027.80
2018-01-13T07:57:45.391Z,1027.79
2018-01-13T07:58:45.390Z,1027.80
2018-01-13T07:59:45.373Z,1027.77
2018-01-13T08:00:45.360Z,1027.78
2018-01-13T08:01:45.350Z,1027.85
2018-01-13T08:02:45.345Z,1027.88
2018-01-13T08:03:45.330Z,1027.84
2018-01-13T08:04:45.326Z,1027.88
2018-01-13T08:05:45.312Z,1027.86
2018-01-13T08:06:45.301Z,1027.87
2018-01-13T08:07:45.293Z,1027.89
2018-01-13T08:08:45.302Z,1027.92
2018-01-13T08:09:45.272Z,1027.92
2018-01-13T08:10:45.264Z,1027.92
2018-01-13T08:11:45.249Z,1027.97
2018-01-13T08:12:45.240Z,1027.95
2018-01-13T08:13:45.229Z,1027.96
2018-01-13T08:14:45.222Z,1027.94
2018-01-13T08:15:45.215Z,1027.94
2018-01-13T08:16:45.199Z,1027.95
2018-01-13T08:17:45.194Z,1027.94
2018-01-13T08:18:45.182Z,1028.04
2018-01-13T08:19:45.171Z,1027.99
2018-01-13T08:20:45.162Z,1028.02
2018-01-13T08:21:45.154Z,1028.06
2018-01-13T08:22:45.143Z,1027.98
2018-01-13T08:23:45.138Z,1028.04
2018-01-13T08:24:45.122Z,1028.05
2018-01-13T08:25:45.110Z,1028.09
2018-01-13T08:26:45.106Z,1028.06
2018-01-13T08:27:45.090Z,1028.14
2018-01-13T08:28:45.083Z,1028.15
2018-01-13T08:29:45.074Z,1028.09
2018-01-13T08:30:45.063Z,1028.12
2018-01-13T08:31:45.054Z,1028.16
2018-01-13T08:32:45.041Z,1028.17
2018-01-13T08:33:45.075Z,1028.19
2018-01-13T08:34:45.026Z,1028.19
2018-01-13T08:35:45.014Z,1028.22
2018-01-13T08:36:45.005Z,1028.24
2018-01-13T08:37:44.995Z,1028.14
2018-01-13T08:38:44.984Z,1028.17
2018-01-13T08:39:44.972Z,1028.20
2018-01-13T08:40:44.962Z,1028.19
2018-01-13T08:41:44.961Z,1028.19
2018-01-13T08:42:44.949Z,1028.18
2018-01-13T08:43:44.931Z,1028.19
2018-01-13T08:44:44.924Z,1028.20
2018-01-13T08:45:44.916Z,1028.21
2018-01-13T08:46:44.901Z,1028.12
2018-01-13T08:47:44.899Z,1028.17
2018-01-13T08:48:44.886Z,1028.16
2018-01-13T08:49:44.874Z,1028.14
2018-01-13T08:50:44.864Z,1028.21
2018-01-13T08:51:44.852Z,1028.17
2018-01-13T08:52:44.843Z,1028.18
2018-01-13T08:53:44.836Z,1028.18
2018-01-13T08:54:44.823Z,1028.14
2018-01-13T08:55:44.814Z,1028.09
2018-01-13T08:56:44.803Z,1028.17
2018-01-13T08:57:44.794Z,1028.15
2018-01-13T08:58:44.784Z,1028.20
2018-01-13T08:59:44.772Z,1028.17
2018-01-13T09:00:44.761Z,1028.25
2018-01-13T09:01:44.755Z,1028.17
2018-01-13T09:02:44.742Z,1028.19
2018-01-13T09:03:44.732Z,1028.14
2018-01-13T09:04:44.725Z,1028.20
2018-01-13T09:05:44.711Z,1028.15
2018-01-13T09:06:44.701Z,1028.17
2018-01-13T09:07:44.694Z,1028.18
2018-01-13T09:08:44.678Z,1028.19
2018-01-13T09:09:44.673Z,1028.22
2018-01-13T09:10:44.661Z,1028.18
2018-01-13T09:11:44.656Z,1028.27
2018-01-13T09:12:44.639Z,1028.21
2018-01-13T09:13:44.629Z,1028.24
2018-01-13T09:14:44.620Z,1028.31
2018-01-13T09:15:44.609Z,1028.24
2018-01-13T09:16:44.597Z,1028.22
2018-01-13T09:17:44.584Z,1028.28
2018-01-13T09:18:44.584Z,1028.29
2018-01-13T09:19:44.568Z,1028.31
2018-01-13T09:20:44.557Z,1028.30
2018-01-13T09:21:44.560Z,1028.31
2018-01-13T09:22:44.538Z,1028.34
2018-01-13T09:23:44.527Z,1028.32
2018-01-13T09:24:44.519Z,1028.34
2018-01-13T09:25:44.506Z,1028.34
2018-01-13T09:26:44.500Z,1028.41
2018-01-13T09:27:44.491Z,1028.37
2018-01-13T09:28:44.475Z,1028.40
2018-01-13T09:29:44.464Z,1028.41
2018-01-13T09:30:44.452Z,1028.38
2018-01-13T09:31:44.442Z,1028.38
2018-01-13T09:32:44.454Z,1028.39
2018-01-13T09:33:44.423Z,1028.41
2018-01-13T09:34:44.412Z,1028.51
2018-01-13T09:35:44.402Z,1028.40
2018-01-13T09:36:44.391Z,1028.45
2018-01-13T09:37:44.383Z,1028.45
2018-01-13T09:38:44.373Z,1028.46
2018-01-13T09:39:44.360Z,1028.37
2018-01-13T09:40:44.350Z,1028.47
2018-01-13T09:41:44.341Z,1028.39
2018-01-13T09:42:44.330Z,1028.37
2018-01-13T09:43:44.319Z,1028.38
2018-01-13T09:44:44.308Z,1028.41
2018-01-13T09:45:44.323Z,1028.45
2018-01-13T09:46:44.293Z,1028.42
2018-01-13T09:47:44.279Z,1028.41
2018-01-13T09:48:44.268Z,1028.43
2018-01-13T09:49:44.273Z,1028.45
2018-01-13T09:50:44.250Z,1028.49
2018-01-13T09:51:44.239Z,1028.44
2018-01-13T09:52:44.234Z,1028.42
2018-01-13T09:53:44.219Z,1028.42
2018-01-13T09:54:44.208Z,1028.42
2018-01-13T09:55:44.200Z,1028.39
2018-01-13T09:56:44.185Z,1028.41
2018-01-13T09:57:44.180Z,1028.43
2018-01-13T09:58:44.172Z,1028.41
2018-01-13T09:59:44.160Z,1028.46
2018-01-13T10:00:44.151Z,1028.43
2018-01-13T10:01:44.142Z,1028.45
2018-01-13T10:02:44.132Z,1028.47
2018-01-13T10:03:44.189Z,1028.40
2018-01-13T10:04:44.114Z,1028.44
2018-01-13T10:05:44.105Z,1028.37
2018-01-13T10:06:44.095Z,1028.33
2018-01-13T10:07:44.099Z,1028.36
2018-01-13T10:08:44.079Z,1028.30
2018-01-13T10:09:44.064Z,1028.37
2018-01-13T10:10:44.054Z,1028.29
2018-01-13T10:11:44.043Z,1028.32
2018-01-13T10:12:44.034Z,1028.32
2018-01-13T10:13:44.020Z,1028.35
2018-01-13T10:14:44.015Z,1028.34
2018-01-13T10:15:44.005Z,1028.34
2018-01-13T10:16:43.996Z,1028.30
2018-01-13T10:17:43.981Z,1028.34
2018-01-13T10:18:43.974Z,1028.36
2018-01-13T10:19:43.963Z,1028.36
2018-01-13T10:20:43.954Z,1028.36
2018-01-13T10:21:43.941Z,1028.36
2018-01-13T10:22:43.935Z,1028.39
2018-01-13T10:23:43.922Z,1028.41
2018-01-13T10:24:43.913Z,1028.36
2018-01-13T10:25:43.903Z,1028.25
2018-01-13T10:26:43.893Z,1028.30
2018-01-13T10:27:43.881Z,1028.25
2018-01-13T10:28:43.874Z,1028.24
2018-01-13T10:29:43.873Z,1028.31
2018-01-13T10:30:43.853Z,1028.30
2018-01-13T10:31:43.843Z,1028.35
2018-01-13T10:32:43.840Z,1028.29
2018-01-13T10:33:43.825Z,1028.26
2018-01-13T10:34:43.820Z,1028.32
2018-01-13T10:35:43.805Z,1028.37
2018-01-13T10:36:43.791Z,1028.35
2018-01-13T10:37:43.792Z,1028.36
2018-01-13T10:38:43.778Z,1028.36
2018-01-13T10:39:43.765Z,1028.41
2018-01-13T10:40:43.755Z,1028.41
2018-01-13T10:41:43.742Z,1028.35
2018-01-13T10:42:43.729Z,1028.40
2018-01-13T10:43:43.728Z,1028.33
2018-01-13T10:44:43.727Z,1028.33
2018-01-13T10:45:43.705Z,1028.33
2018-01-13T10:46:43.704Z,1028.33
2018-01-13T10:47:43.685Z,1028.34
2018-01-13T10:48:43.675Z,1028.39
2018-01-13T10:49:43.666Z,1028.30
2018-01-13T10:50:43.655Z,1028.30
2018-01-13T10:51:43.649Z,1028.33
2018-01-13T10:52:43.637Z,1028.37
2018-01-13T10:53:43.643Z,1028.32
2018-01-13T10:54:43.616Z,1028.31
2018-01-13T10:55:43.604Z,1028.33
2018-01-13T10:56:43.595Z,1028.31
2018-01-13T10:57:43.584Z,1028.33
2018-01-13T10:58:43.574Z,1028.31
2018-01-13T10:59:43.602Z,1028.31
2018-01-13T11:00:43.555Z,1028.30
2018-01-13T11:01:43.545Z,1028.29
2018-01-13T11:02:43.536Z,1028.29
2018-01-13T11:03:43.525Z,1028.21
2018-01-13T11:04:43.513Z,1028.25
2018-01-13T11:05:43.507Z,1028.25
2018-01-13T11:06:43.495Z,1028.23
2018-01-13T11:07:43.483Z,1028.26
2018-01-13T11:08:43.476Z,1028.25
2018-01-13T11:09:43.476Z,1028.20
2018-01-13T11:10:43.452Z,1028.29
2018-01-13T11:11:43.443Z,1028.18
2018-01-13T11:12:43.438Z,1028.14
2018-01-13T11:13:43.427Z,1028.14
2018-01-13T11:14:43.412Z,1028.22
2018-01-13T11:15:43.410Z,1028.18
2018-01-13T11:16:43.390Z,1028.21
2018-01-13T11:17:43.386Z,1028.16
2018-01-13T11:18:43.375Z,1028.16
2018-01-13T11:19:43.363Z,1028.19
2018-01-13T11:20:43.350Z,1028.11
2018-01-13T11:21:43.348Z,1028.10
2018-01-13T11:22:43.335Z,1028.17
2018-01-13T11:23:43.324Z,1028.18
2018-01-13T11:24:43.317Z,1028.07
2018-01-13T11:25:43.305Z,1028.16
2018-01-13T11:26:43.306Z,1028.14
2018-01-13T11:27:43.798Z,1028.16
2018-01-13T11:28:43.274Z,1028.17
2018-01-13T11:29:43.269Z,1028.13
2018-01-13T11:30:43.254Z,1028.14
2018-01-13T11:31:43.242Z,1028.14
2018-01-13T11:32:43.264Z,1028.07
2018-01-13T11:33:43.225Z,1028.07
2018-01-13T11:34:43.215Z,1028.09
2018-01-13T11:35:43.206Z,1028.11
2018-01-13T11:36:43.194Z,1028.04
2018-01-13T11:37:43.182Z,1027.98
2018-01-13T11:38:43.185Z,1028.02
2018-01-13T11:39:43.162Z,1028.04
2018-01-13T11:40:43.152Z,1028.06
2018-01-13T11:41:43.163Z,1028.03
2018-01-13T11:42:43.132Z,1028.03
2018-01-13T11:43:43.124Z,1027.98
2018-01-13T11:44:43.114Z,1027.98
2018-01-13T11:45:43.100Z,1027.94
2018-01-13T11:46:43.093Z,1028.02
2018-01-13T11:47:43.087Z,1028.01
2018-01-13T11:48:43.073Z,1027.97
2018-01-13T11:49:43.063Z,1028.03
2018-01-13T11:50:43.156Z,1027.97
2018-01-13T11:51:43.084Z,1027.92
2018-01-13T11:52:43.319Z,1027.95
2018-01-13T11:53:43.154Z,1027.97
2018-01-13T11:54:43.028Z,1027.94
2018-01-13T11:55:43.223Z,1027.95
2018-01-13T11:56:43.118Z,1027.97
2018-01-13T11:57:43.114Z,1027.99
2018-01-13T11:58:43.085Z,1028.01
2018-01-13T11:59:43.076Z,1027.99
2018-01-13T12:00:42.996Z,1027.94
2018-01-13T12:01:43.020Z,1028.01
2018-01-13T12:02:42.929Z,1028.03
2018-01-13T12:03:42.922Z,1028.00
2018-01-13T12:04:42.912Z,1027.95
2018-01-13T12:05:42.897Z,1027.98